createdAt,value
2017-10-17T16:03:44.947Z,19.92
2017-10-17T16:04:25.523Z,19.89
2017-10-17T16:05:06.083Z,19.89
2017-10-17T16:05:46.657Z,19.88
2017-10-17T16:06:27.272Z,19.73
2017-10-17T16:07:07.853Z,19.81
2017-10-17T16:07:48.442Z,19.76
2017-10-17T16:08:29.028Z,19.82
2017-10-17T16:09:09.582Z,19.76
2017-10-17T16:09:50.151Z,19.74
2017-10-17T16:10:30.736Z,19.76
2017-10-17T16:11:11.322Z,19.71
2017-10-17T16:11:51.916Z,19.69
2017-10-17T16:12:32.491Z,19.66
2017-10-17T16:13:13.071Z,19.67
2017-10-17T16:13:53.657Z,19.66
2017-10-17T16:14:34.249Z,19.67
2017-10-17T16:15:14.818Z,19.67
2017-10-17T16:15:55.414Z,19.64
2017-10-17T16:16:35.995Z,19.58
2017-10-17T16:17:16.572Z,19.67
2017-10-17T16:17:57.147Z,19.59
2017-10-17T16:18:37.714Z,19.64
2017-10-17T16:19:18.280Z,19.54
2017-10-17T16:19:58.860Z,19.66
2017-10-17T16:20:39.436Z,19.55
2017-10-17T16:21:20.036Z,19.63
2017-10-17T16:22:00.607Z,19.55
2017-10-17T16:22:41.206Z,19.59
2017-10-17T16:23:21.779Z,19.52
2017-10-17T16:24:02.349Z,19.44
2017-10-17T16:24:42.909Z,19.51
2017-10-17T16:25:23.497Z,19.45
2017-10-17T16:26:04.051Z,19.45
2017-10-17T16:26:44.619Z,19.41
2017-10-17T16:27:25.192Z,19.39
2017-10-17T16:28:05.932Z,19.45
2017-10-17T16:28:46.714Z,19.41
2017-10-17T16:29:27.290Z,19.39
2017-10-17T16:30:07.857Z,19.41
2017-10-17T16:30:48.448Z,19.39
2017-10-17T16:31:29.024Z,19.31
2017-10-17T16:32:09.617Z,19.31
2017-10-17T16:32:50.227Z,19.39
2017-10-17T16:33:30.817Z,19.34
2017-10-17T16:34:11.429Z,19.37
2017-10-17T16:34:52.069Z,19.48
2017-10-17T16:35:32.649Z,19.54
2017-10-17T16:36:13.207Z,19.49
2017-10-17T16:36:53.774Z,19.62
2017-10-17T16:37:34.446Z,19.54
2017-10-17T16:38:15.021Z,19.62
2017-10-17T16:38:55.602Z,19.59
2017-10-17T16:39:36.238Z,19.67
2017-10-17T16:40:16.844Z,19.58
2017-10-17T16:40:57.412Z,19.67
2017-10-17T16:41:38.010Z,19.69
2017-10-17T16:42:18.588Z,19.74
2017-10-17T16:42:59.172Z,19.74
2017-10-17T16:43:39.791Z,19.73
2017-10-17T16:44:20.366Z,19.7
2017-10-17T16:45:00.932Z,19.77
2017-10-17T16:45:41.506Z,19.74
2017-10-17T16:46:22.355Z,19.76
2017-10-17T16:47:02.893Z,19.7
2017-10-17T16:47:43.493Z,19.77
2017-10-17T16:48:24.121Z,19.71
2017-10-17T16:49:04.864Z,19.74
2017-10-17T16:49:45.665Z,19.69
2017-10-17T16:50:26.226Z,19.71
2017-10-17T16:51:06.787Z,19.76
2017-10-17T16:51:47.376Z,19.82
2017-10-17T16:52:27.968Z,19.85
2017-10-17T16:53:08.544Z,19.81
2017-10-17T16:53:49.103Z,19.85
2017-10-17T16:54:29.668Z,19.88
2017-10-17T16:55:10.248Z,19.79
2017-10-17T16:55:50.841Z,19.86
2017-10-17T16:56:31.435Z,19.81
2017-10-17T16:57:12.008Z,19.76
2017-10-17T16:57:52.602Z,19.76
2017-10-17T16:58:33.225Z,19.85
2017-10-17T16:59:14.301Z,19.81
2017-10-17T16:59:54.873Z,19.82
2017-10-17T17:00:35.453Z,19.82
2017-10-17T17:01:16.021Z,19.85
2017-10-17T17:01:56.595Z,19.76
2017-10-17T17:02:37.166Z,19.86
2017-10-17T17:03:17.730Z,19.79
2017-10-17T17:03:58.301Z,19.82
2017-10-17T17:04:38.897Z,19.86
2017-10-17T17:05:19.461Z,19.74
2017-10-17T17:06:00.050Z,19.86
2017-10-17T17:06:40.678Z,19.79
2017-10-17T17:07:21.403Z,19.73
2017-10-17T17:08:02.467Z,19.71
2017-10-17T17:08:43.456Z,19.74
2017-10-17T17:09:25.296Z,19.81
2017-10-17T17:10:07.506Z,19.81
2017-10-17T17:10:48.712Z,19.88
2017-10-17T17:11:29.980Z,19.81
2017-10-17T17:12:10.770Z,19.81
2017-10-17T17:12:51.569Z,19.71
2017-10-17T17:13:33.140Z,19.82
2017-10-17T17:14:14.417Z,19.77
2017-10-17T17:14:55.219Z,19.77
2017-10-17T17:15:36.082Z,19.71
2017-10-17T17:16:16.761Z,19.73
2017-10-17T17:16:57.738Z,19.77
2017-10-17T17:17:38.698Z,19.7
2017-10-17T17:18:19.669Z,19.74
2017-10-17T17:19:00.699Z,19.7
2017-10-17T17:19:41.368Z,19.67
2017-10-17T17:20:22.052Z,19.67
2017-10-17T17:21:02.633Z,19.58
2017-10-17T17:21:43.348Z,19.62
2017-10-17T17:22:24.361Z,19.54
2017-10-17T17:23:05.508Z,19.45
2017-10-17T17:23:46.767Z,19.4
2017-10-17T17:24:27.739Z,19.44
2017-10-17T17:25:08.395Z,19.36
2017-10-17T17:25:49.642Z,19.27
2017-10-17T17:26:30.947Z,19.27
2017-10-17T17:27:12.312Z,19.3
2017-10-17T17:27:55.645Z,19.21
2017-10-17T17:28:36.640Z,19.12
2017-10-17T17:29:17.432Z,19.08
2017-10-17T17:29:58.308Z,19.11
2017-10-17T17:30:38.870Z,19.08
2017-10-17T17:31:19.436Z,18.98
2017-10-17T17:32:00.010Z,18.96
2017-10-17T17:32:40.586Z,18.95
2017-10-17T17:33:21.204Z,18.96
2017-10-17T17:34:01.774Z,18.92
2017-10-17T17:34:42.368Z,18.99
2017-10-17T17:35:22.925Z,18.89
2017-10-17T17:36:03.533Z,18.88
2017-10-17T17:36:44.101Z,18.78
2017-10-17T17:37:24.669Z,18.95
2017-10-17T17:38:05.242Z,18.84
2017-10-17T17:38:45.838Z,18.89
2017-10-17T17:39:26.454Z,18.88
2017-10-17T17:40:07.015Z,18.75
2017-10-17T17:40:47.580Z,18.77
2017-10-17T17:41:28.178Z,18.74
2017-10-17T17:42:11.877Z,18.8
2017-10-17T17:42:51.962Z,18.75
2017-10-17T17:43:35.240Z,18.75
2017-10-17T17:44:16.323Z,18.7
2017-10-17T17:44:57.525Z,18.74
2017-10-17T17:45:39.692Z,18.71
2017-10-17T17:46:20.731Z,18.65
2017-10-17T17:47:01.358Z,18.63
2017-10-17T17:47:41.981Z,18.53
2017-10-17T17:48:22.568Z,18.59
2017-10-17T17:49:03.188Z,18.6
2017-10-17T17:49:43.751Z,18.56
2017-10-17T17:50:24.323Z,18.55
2017-10-17T17:51:04.888Z,18.47
2017-10-17T17:51:45.486Z,18.4
2017-10-17T17:52:26.051Z,18.47
2017-10-17T17:53:06.626Z,18.43
2017-10-17T17:53:47.320Z,18.4
2017-10-17T17:54:28.266Z,18.35
2017-10-17T17:55:09.385Z,18.41
2017-10-17T17:55:51.529Z,18.41
2017-10-17T17:56:32.275Z,18.41
2017-10-17T17:57:21.786Z,18.33
2017-10-17T17:58:02.389Z,18.4
2017-10-17T17:58:42.981Z,18.26
2017-10-17T17:59:23.567Z,18.28
2017-10-17T18:00:04.181Z,18.33
2017-10-17T18:00:44.743Z,18.33
2017-10-17T18:01:25.324Z,18.29
2017-10-17T18:02:05.899Z,18.35
2017-10-17T18:02:46.472Z,18.23
2017-10-17T18:03:27.068Z,18.25
2017-10-17T18:04:07.640Z,18.25
2017-10-17T18:04:48.203Z,18.31
2017-10-17T18:05:28.802Z,18.23
2017-10-17T18:06:09.649Z,18.11
2017-10-17T18:07:44.971Z,18.2
2017-10-17T18:08:25.896Z,18.23
2017-10-17T18:09:07.117Z,18.2
2017-10-17T18:09:47.719Z,18.13
2017-10-17T18:10:28.313Z,18.15
2017-10-17T18:11:08.874Z,18.15
2017-10-17T18:11:49.444Z,18.16
2017-10-17T18:12:30.010Z,18.07
2017-10-17T18:13:10.616Z,18.01
2017-10-17T18:13:51.177Z,18.05
2017-10-17T18:14:31.741Z,18.07
2017-10-17T18:15:12.341Z,18.07
2017-10-17T18:15:52.949Z,18.01
2017-10-17T18:16:33.513Z,18
2017-10-17T18:17:14.066Z,18.01
2017-10-17T18:17:54.652Z,18
2017-10-17T18:18:35.208Z,18.01
2017-10-17T18:19:15.781Z,17.98
2017-10-17T18:19:56.351Z,18
2017-10-17T18:20:36.921Z,17.98
2017-10-17T18:21:17.506Z,17.95
2017-10-17T18:21:58.100Z,17.94
2017-10-17T18:22:38.732Z,17.97
2017-10-17T18:23:19.337Z,17.94
2017-10-17T18:24:00.384Z,18
2017-10-17T18:24:41.044Z,18
2017-10-17T18:25:21.705Z,17.95
2017-10-17T18:26:02.325Z,17.94
2017-10-17T18:26:42.898Z,17.9
2017-10-17T18:27:23.471Z,17.92
2017-10-17T18:28:04.037Z,17.95
2017-10-17T18:28:44.634Z,17.94
2017-10-17T18:29:25.210Z,17.92
2017-10-17T18:30:05.804Z,17.9
2017-10-17T18:30:46.370Z,17.89
2017-10-17T18:31:26.935Z,17.9
2017-10-17T18:32:07.518Z,17.87
2017-10-17T18:32:48.110Z,17.83
2017-10-17T18:33:28.853Z,17.85
2017-10-17T18:34:09.527Z,17.85
2017-10-17T18:34:50.252Z,17.87
2017-10-17T18:35:30.877Z,17.85
2017-10-17T18:36:11.453Z,17.83
2017-10-17T18:36:52.046Z,17.87
2017-10-17T18:37:33.497Z,17.85
2017-10-17T18:38:14.485Z,17.79
2017-10-17T18:38:55.284Z,17.8
2017-10-17T18:39:36.017Z,17.85
2017-10-17T18:40:16.821Z,17.89
2017-10-17T18:40:57.627Z,17.89
2017-10-17T18:41:38.627Z,17.87
2017-10-17T18:42:19.201Z,17.86
2017-10-17T18:43:00.008Z,17.86
2017-10-17T18:43:40.661Z,17.89
2017-10-17T18:44:21.955Z,17.79
2017-10-17T18:45:02.756Z,17.89
2017-10-17T18:45:43.599Z,17.85
2017-10-17T18:46:24.798Z,17.9
2017-10-17T18:47:05.752Z,17.92
2017-10-17T18:47:46.414Z,17.92
2017-10-17T18:48:27.043Z,17.89
2017-10-17T18:49:07.601Z,17.82
2017-10-17T18:49:48.656Z,17.89
2017-10-17T18:50:29.723Z,17.92
2017-10-17T18:51:10.930Z,17.87
2017-10-17T18:51:52.127Z,17.8
2017-10-17T18:52:32.985Z,17.86
2017-10-17T18:53:13.575Z,17.85
2017-10-17T18:53:54.311Z,17.79
2017-10-17T18:54:35.194Z,17.76
2017-10-17T18:55:16.008Z,17.74
2017-10-17T18:55:56.911Z,17.79
2017-10-17T18:56:37.666Z,17.78
2017-10-17T18:57:18.252Z,17.79
2017-10-17T18:57:58.860Z,17.79
2017-10-17T18:58:39.484Z,17.76
2017-10-17T18:59:20.412Z,17.72
2017-10-17T19:00:01.962Z,17.8
2017-10-17T19:00:42.543Z,17.72
2017-10-17T19:01:25.289Z,17.65
2017-10-17T19:02:05.930Z,17.72
2017-10-17T19:02:47.342Z,17.7
2017-10-17T19:03:28.216Z,17.63
2017-10-17T19:04:09.392Z,17.67
2017-10-17T19:04:50.884Z,17.65
2017-10-17T19:05:31.732Z,17.7
2017-10-17T19:06:12.681Z,17.67
2017-10-17T19:06:53.681Z,17.7
2017-10-17T19:07:34.958Z,17.7
2017-10-17T19:08:16.536Z,17.6
2017-10-17T19:08:57.551Z,17.63
2017-10-17T19:09:38.187Z,17.57
2017-10-17T19:10:18.802Z,17.59
2017-10-17T19:10:59.392Z,17.64
2017-10-17T19:11:39.977Z,17.68
2017-10-17T19:12:20.538Z,17.64
2017-10-17T19:13:01.157Z,17.59
2017-10-17T19:13:41.735Z,17.49
2017-10-17T19:14:22.329Z,17.63
2017-10-17T19:15:02.885Z,17.52
2017-10-17T19:15:44.957Z,17.67
2017-10-17T19:16:26.384Z,17.44
2017-10-17T19:17:07.568Z,17.51
2017-10-17T19:17:48.762Z,17.46
2017-10-17T19:18:29.780Z,17.45
2017-10-17T19:19:10.686Z,17.52
2017-10-17T19:19:51.477Z,17.46
2017-10-17T19:20:32.684Z,17.48
2017-10-17T19:21:13.388Z,17.45
2017-10-17T19:21:54.011Z,17.45
2017-10-17T19:22:34.581Z,17.44
2017-10-17T19:23:15.168Z,17.39
2017-10-17T19:23:55.742Z,17.44
2017-10-17T19:24:36.299Z,17.39
2017-10-17T19:25:16.871Z,17.36
2017-10-17T19:25:57.598Z,17.34
2017-10-17T19:26:38.181Z,17.31
2017-10-17T19:27:18.852Z,17.33
2017-10-17T19:27:59.464Z,17.38
2017-10-17T19:28:40.042Z,17.31
2017-10-17T19:29:20.612Z,17.34
2017-10-17T19:30:01.177Z,17.33
2017-10-17T19:30:41.753Z,17.33
2017-10-17T19:31:22.320Z,17.34
2017-10-17T19:32:02.918Z,17.29
2017-10-17T19:32:43.487Z,17.36
2017-10-17T19:33:24.069Z,17.36
2017-10-17T19:34:04.638Z,17.36
2017-10-17T19:34:45.200Z,17.34
2017-10-17T19:35:25.763Z,17.36
2017-10-17T19:36:06.343Z,17.34
2017-10-17T19:36:46.924Z,17.34
2017-10-17T19:37:27.494Z,17.24
2017-10-17T19:38:08.052Z,17.31
2017-10-17T19:38:48.619Z,17.3
2017-10-17T19:39:29.191Z,17.26
2017-10-17T19:40:09.765Z,17.24
2017-10-17T19:40:50.324Z,17.2
2017-10-17T19:41:30.894Z,17.26
2017-10-17T19:42:11.467Z,17.16
2017-10-17T19:42:52.046Z,17.23
2017-10-17T19:43:32.601Z,17.19
2017-10-17T19:44:13.177Z,17.26
2017-10-17T19:44:53.765Z,17.15
2017-10-17T19:45:34.346Z,17.16
2017-10-17T19:46:14.911Z,17.24
2017-10-17T19:46:55.480Z,17.2
2017-10-17T19:47:36.049Z,17.15
2017-10-17T19:48:16.629Z,17.19
2017-10-17T19:48:57.209Z,17.22
2017-10-17T19:49:37.778Z,17.2
2017-10-17T19:50:18.359Z,17.27
2017-10-17T19:50:58.926Z,17.26
2017-10-17T19:51:39.498Z,17.19
2017-10-17T19:52:20.060Z,17.2
2017-10-17T19:53:00.708Z,17.26
2017-10-17T19:53:41.322Z,17.2
2017-10-17T19:54:21.931Z,17.24
2017-10-17T19:55:02.493Z,17.2
2017-10-17T19:55:43.064Z,17.23
2017-10-17T19:56:23.670Z,17.19
2017-10-17T19:57:04.259Z,17.23
2017-10-17T19:57:44.857Z,17.19
2017-10-17T19:58:25.398Z,17.11
2017-10-17T19:59:05.968Z,17.05
2017-10-17T19:59:46.544Z,17.08
2017-10-17T20:00:27.123Z,17.09
2017-10-17T20:01:07.693Z,17.14
2017-10-17T20:01:48.258Z,17.11
2017-10-17T20:02:28.827Z,17.09
2017-10-17T20:03:09.401Z,17.15
2017-10-17T20:03:49.984Z,17.09
2017-10-17T20:04:30.560Z,17.11
2017-10-17T20:05:11.127Z,17.11
2017-10-17T20:05:51.709Z,17.06
2017-10-17T20:06:32.296Z,17.11
2017-10-17T20:07:12.868Z,17.19
2017-10-17T20:07:53.439Z,17.05
2017-10-17T20:08:34.006Z,17.04
2017-10-17T20:09:14.568Z,16.99
2017-10-17T20:09:55.142Z,17.04
2017-10-17T20:10:35.699Z,17.04
2017-10-17T20:11:16.271Z,17.04
2017-10-17T20:11:56.868Z,17.04
2017-10-17T20:12:37.438Z,17.04
2017-10-17T20:13:18.031Z,17.02
2017-10-17T20:13:58.608Z,17.05
2017-10-17T20:14:39.177Z,17.02
2017-10-17T20:15:19.745Z,16.97
2017-10-17T20:16:00.327Z,17.02
2017-10-17T20:16:40.906Z,17.01
2017-10-17T20:17:21.482Z,16.97
2017-10-17T20:18:02.044Z,17.02
2017-10-17T20:18:42.619Z,17.01
2017-10-17T20:19:23.221Z,17.02
2017-10-17T20:20:03.760Z,16.93
2017-10-17T20:20:44.348Z,16.94
2017-10-17T20:21:24.933Z,16.9
2017-10-17T20:22:05.499Z,16.9
2017-10-17T20:22:46.084Z,16.87
2017-10-17T20:23:26.649Z,16.93
2017-10-17T20:24:07.222Z,16.86
2017-10-17T20:24:47.815Z,16.91
2017-10-17T20:25:28.391Z,16.79
2017-10-17T20:26:08.972Z,16.87
2017-10-17T20:26:49.540Z,16.84
2017-10-17T20:27:30.147Z,16.79
2017-10-17T20:28:10.717Z,16.78
2017-10-17T20:28:51.297Z,16.86
2017-10-17T20:29:31.882Z,16.86
2017-10-17T20:30:12.458Z,16.83
2017-10-17T20:30:53.046Z,16.81
2017-10-17T20:31:33.619Z,16.81
2017-10-17T20:32:14.190Z,16.83
2017-10-17T20:32:54.759Z,16.79
2017-10-17T20:33:35.322Z,16.79
2017-10-17T20:34:15.894Z,16.79
2017-10-17T20:34:56.466Z,16.75
2017-10-17T20:35:37.044Z,16.72
2017-10-17T20:36:17.618Z,16.84
2017-10-17T20:36:58.200Z,16.71
2017-10-17T20:37:38.808Z,16.74
2017-10-17T20:38:19.388Z,16.69
2017-10-17T20:38:59.969Z,16.76
2017-10-17T20:39:40.573Z,16.71
2017-10-17T20:40:21.149Z,16.66
2017-10-17T20:41:01.722Z,16.71
2017-10-17T20:41:42.275Z,16.66
2017-10-17T20:42:22.854Z,16.75
2017-10-17T20:43:03.433Z,16.69
2017-10-17T20:43:44.011Z,16.72
2017-10-17T20:44:24.574Z,16.76
2017-10-17T20:45:05.268Z,16.83
2017-10-17T20:45:45.871Z,16.84
2017-10-17T20:46:26.402Z,16.66
2017-10-17T20:47:06.959Z,16.69
2017-10-17T20:47:47.548Z,16.69
2017-10-17T20:48:28.125Z,16.71
2017-10-17T20:49:08.733Z,16.66
2017-10-17T20:49:49.301Z,16.66
2017-10-17T20:50:29.891Z,16.65
2017-10-17T20:51:10.513Z,16.69
2017-10-17T20:51:51.064Z,16.64
2017-10-17T20:52:31.660Z,16.66
2017-10-17T20:53:12.240Z,16.72
2017-10-17T20:53:52.806Z,16.68
2017-10-17T20:54:33.405Z,16.72
2017-10-17T20:55:14.002Z,16.64
2017-10-17T20:55:54.577Z,16.61
2017-10-17T20:56:35.187Z,16.64
2017-10-17T20:57:15.784Z,16.66
2017-10-17T20:57:56.356Z,16.64
2017-10-17T20:58:36.930Z,16.58
2017-10-17T20:59:17.522Z,16.58
2017-10-17T20:59:58.076Z,16.56
2017-10-17T21:00:38.638Z,16.6
2017-10-17T21:01:19.225Z,16.57
2017-10-17T21:01:59.785Z,16.56
2017-10-17T21:02:40.397Z,16.6
2017-10-17T21:03:20.949Z,16.54
2017-10-17T21:04:01.572Z,16.54
2017-10-17T21:04:42.156Z,16.53
2017-10-17T21:05:22.730Z,16.58
2017-10-17T21:06:03.293Z,16.58
2017-10-17T21:06:43.867Z,16.51
2017-10-17T21:07:24.440Z,16.56
2017-10-17T21:08:04.995Z,16.53
2017-10-17T21:08:45.556Z,16.54
2017-10-17T21:09:26.128Z,16.57
2017-10-17T21:10:06.710Z,16.53
2017-10-17T21:10:47.298Z,16.53
2017-10-17T21:11:27.911Z,16.5
2017-10-17T21:12:08.487Z,16.49
2017-10-17T21:12:49.063Z,16.49
2017-10-17T21:13:29.636Z,16.43
2017-10-17T21:14:10.235Z,16.46
2017-10-17T21:14:50.788Z,16.46
2017-10-17T21:15:31.418Z,16.41
2017-10-17T21:16:12.009Z,16.38
2017-10-17T21:16:52.578Z,16.39
2017-10-17T21:17:33.177Z,16.42
2017-10-17T21:18:13.752Z,16.39
2017-10-17T21:18:54.320Z,16.41
2017-10-17T21:19:34.890Z,16.33
2017-10-17T21:20:15.459Z,16.33
2017-10-17T21:20:56.030Z,16.41
2017-10-17T21:21:36.607Z,16.33
2017-10-17T21:22:17.191Z,16.41
2017-10-17T21:22:57.754Z,16.42
2017-10-17T21:23:38.334Z,16.35
2017-10-17T21:24:18.890Z,16.39
2017-10-17T21:24:59.455Z,16.33
2017-10-17T21:25:40.044Z,16.35
2017-10-17T21:26:20.608Z,16.36
2017-10-17T21:27:01.181Z,16.36
2017-10-17T21:27:41.762Z,16.39
2017-10-17T21:28:22.331Z,16.31
2017-10-17T21:29:02.906Z,16.35
2017-10-17T21:29:43.519Z,16.42
2017-10-17T21:30:24.084Z,16.35
2017-10-17T21:31:04.658Z,16.35
2017-10-17T21:31:45.223Z,16.32
2017-10-17T21:32:25.797Z,16.32
2017-10-17T21:33:06.367Z,16.31
2017-10-17T21:33:46.929Z,16.29
2017-10-17T21:34:27.504Z,16.28
2017-10-17T21:35:08.072Z,16.24
2017-10-17T21:35:48.663Z,16.31
2017-10-17T21:36:29.217Z,16.33
2017-10-17T21:37:09.799Z,16.23
2017-10-17T21:37:50.376Z,16.23
2017-10-17T21:38:30.948Z,16.32
2017-10-17T21:39:11.502Z,16.26
2017-10-17T21:39:52.089Z,16.33
2017-10-17T21:40:32.657Z,16.31
2017-10-17T21:41:13.232Z,16.24
2017-10-17T21:41:53.800Z,16.28
2017-10-17T21:42:34.413Z,16.26
2017-10-17T21:43:14.985Z,16.17
2017-10-17T21:43:55.577Z,16.17
2017-10-17T21:44:36.203Z,16.17
2017-10-17T21:45:16.782Z,16.13
2017-10-17T21:45:57.369Z,16.12
2017-10-17T21:46:37.937Z,16.1
2017-10-17T21:47:18.518Z,16.09
2017-10-17T21:47:59.086Z,16.1
2017-10-17T21:48:39.650Z,16.02
2017-10-17T21:49:20.224Z,16.08
2017-10-17T21:50:00.799Z,16.04
2017-10-17T21:50:41.366Z,16.08
2017-10-17T21:51:21.940Z,16.09
2017-10-17T21:52:02.513Z,16.08
2017-10-17T21:52:43.082Z,16.05
2017-10-17T21:53:23.663Z,16.08
2017-10-17T21:54:04.240Z,16.04
2017-10-17T21:54:44.816Z,16.1
2017-10-17T21:55:25.388Z,16.12
2017-10-17T21:56:05.963Z,16.01
2017-10-17T21:56:46.562Z,16.02
2017-10-17T21:57:27.140Z,16.01
2017-10-17T21:58:07.715Z,16.02
2017-10-17T21:58:48.278Z,16.02
2017-10-17T21:59:28.852Z,16.04
2017-10-17T22:00:09.419Z,16.01
2017-10-17T22:00:50.013Z,16.02
2017-10-17T22:01:30.588Z,16
2017-10-17T22:02:11.171Z,16
2017-10-17T22:02:51.731Z,16.02
2017-10-17T22:03:32.328Z,16.02
2017-10-17T22:04:12.898Z,16
2017-10-17T22:04:53.502Z,16.01
2017-10-17T22:05:34.098Z,16
2017-10-17T22:06:14.675Z,15.98
2017-10-17T22:06:55.242Z,15.98
2017-10-17T22:07:35.807Z,16.02
2017-10-17T22:08:16.369Z,16.01
2017-10-17T22:08:56.945Z,15.95
2017-10-17T22:09:37.501Z,16
2017-10-17T22:10:18.066Z,15.91
2017-10-17T22:10:58.654Z,15.95
2017-10-17T22:11:39.235Z,15.95
2017-10-17T22:12:19.833Z,16.02
2017-10-17T22:13:00.392Z,16
2017-10-17T22:13:40.960Z,15.98
2017-10-17T22:14:21.569Z,16
2017-10-17T22:15:02.160Z,15.92
2017-10-17T22:15:42.732Z,16.02
2017-10-17T22:16:23.298Z,15.97
2017-10-17T22:17:03.889Z,16.04
2017-10-17T22:17:44.435Z,15.94
2017-10-17T22:18:25.077Z,15.94
2017-10-17T22:19:05.648Z,15.92
2017-10-17T22:19:46.237Z,15.98
2017-10-17T22:20:26.803Z,15.92
2017-10-17T22:21:07.378Z,15.98
2017-10-17T22:21:47.953Z,15.94
2017-10-17T22:22:28.514Z,15.91
2017-10-17T22:23:09.074Z,15.98
2017-10-17T22:23:49.659Z,15.88
2017-10-17T22:24:30.220Z,15.92
2017-10-17T22:25:10.784Z,15.9
2017-10-17T22:25:51.378Z,15.9
2017-10-17T22:26:31.952Z,15.83
2017-10-17T22:27:12.516Z,15.94
2017-10-17T22:27:53.099Z,15.91
2017-10-17T22:28:33.680Z,15.83
2017-10-17T22:29:14.267Z,15.83
2017-10-17T22:29:54.842Z,15.77
2017-10-17T22:30:35.396Z,15.83
2017-10-17T22:31:15.961Z,15.79
2017-10-17T22:31:56.526Z,15.76
2017-10-17T22:32:37.148Z,15.86
2017-10-17T22:33:17.720Z,15.77
2017-10-17T22:33:58.294Z,15.82
2017-10-17T22:34:38.867Z,15.79
2017-10-17T22:35:19.460Z,15.82
2017-10-17T22:36:00.033Z,15.86
2017-10-17T22:36:40.610Z,15.83
2017-10-17T22:37:21.179Z,15.76
2017-10-17T22:38:01.751Z,15.83
2017-10-17T22:38:42.316Z,15.86
2017-10-17T22:39:22.882Z,15.84
2017-10-17T22:40:03.448Z,15.84
2017-10-17T22:40:44.023Z,15.84
2017-10-17T22:41:24.601Z,15.83
2017-10-17T22:42:05.171Z,15.82
2017-10-17T22:42:45.725Z,15.76
2017-10-17T22:43:26.295Z,15.79
2017-10-17T22:44:06.870Z,15.77
2017-10-17T22:44:47.434Z,15.77
2017-10-17T22:45:28.018Z,15.83
2017-10-17T22:46:08.579Z,15.8
2017-10-17T22:46:49.140Z,15.73
2017-10-17T22:47:29.705Z,15.83
2017-10-17T22:48:10.282Z,15.75
2017-10-17T22:48:50.847Z,15.75
2017-10-17T22:49:31.456Z,15.8
2017-10-17T22:50:12.034Z,15.8
2017-10-17T22:50:52.607Z,15.72
2017-10-17T22:51:33.195Z,15.8
2017-10-17T22:52:13.738Z,15.79
2017-10-17T22:52:54.303Z,15.68
2017-10-17T22:53:34.873Z,15.73
2017-10-17T22:54:15.446Z,15.8
2017-10-17T22:54:56.018Z,15.73
2017-10-17T22:55:36.582Z,15.77
2017-10-17T22:56:17.157Z,15.7
2017-10-17T22:56:57.771Z,15.75
2017-10-17T22:57:38.319Z,15.67
2017-10-17T22:58:18.879Z,15.73
2017-10-17T22:58:59.461Z,15.72
2017-10-17T22:59:40.024Z,15.72
2017-10-17T23:00:20.595Z,15.61
2017-10-17T23:01:01.166Z,15.68
2017-10-17T23:01:41.737Z,15.72
2017-10-17T23:02:22.306Z,15.72
2017-10-17T23:03:02.875Z,15.62
2017-10-17T23:03:43.472Z,15.7
2017-10-17T23:04:24.026Z,15.7
2017-10-17T23:05:04.601Z,15.57
2017-10-17T23:05:45.170Z,15.65
2017-10-17T23:06:25.747Z,15.65
2017-10-17T23:07:06.334Z,15.59
2017-10-17T23:07:46.895Z,15.64
2017-10-17T23:08:27.455Z,15.58
2017-10-17T23:09:08.020Z,15.62
2017-10-17T23:09:48.649Z,15.55
2017-10-17T23:10:29.173Z,15.58
2017-10-17T23:11:09.728Z,15.61
2017-10-17T23:11:50.334Z,15.61
2017-10-17T23:12:30.909Z,15.57
2017-10-17T23:13:11.491Z,15.61
2017-10-17T23:13:52.072Z,15.57
2017-10-17T23:14:32.651Z,15.57
2017-10-17T23:15:13.213Z,15.55
2017-10-17T23:15:53.776Z,15.55
2017-10-17T23:16:34.367Z,15.59
2017-10-17T23:17:14.942Z,15.59
2017-10-17T23:17:55.509Z,15.59
2017-10-17T23:18:36.077Z,15.61
2017-10-17T23:19:16.671Z,15.54
2017-10-17T23:19:57.259Z,15.58
2017-10-17T23:20:37.837Z,15.52
2017-10-17T23:21:18.436Z,15.59
2017-10-17T23:21:58.997Z,15.54
2017-10-17T23:22:39.566Z,15.57
2017-10-17T23:23:20.135Z,15.52
2017-10-17T23:24:00.688Z,15.58
2017-10-17T23:24:41.256Z,15.51
2017-10-17T23:25:21.818Z,15.54
2017-10-17T23:26:02.388Z,15.54
2017-10-17T23:26:42.948Z,15.49
2017-10-17T23:27:23.532Z,15.55
2017-10-17T23:28:04.149Z,15.49
2017-10-17T23:28:44.739Z,15.51
2017-10-17T23:29:25.349Z,15.52
2017-10-17T23:30:05.936Z,15.44
2017-10-17T23:30:46.505Z,15.52
2017-10-17T23:31:27.075Z,15.51
2017-10-17T23:32:07.654Z,15.44
2017-10-17T23:32:48.216Z,15.47
2017-10-17T23:33:28.785Z,15.49
2017-10-17T23:34:09.370Z,15.44
2017-10-17T23:34:49.938Z,15.46
2017-10-17T23:35:30.517Z,15.4
2017-10-17T23:36:11.089Z,15.37
2017-10-17T23:36:51.665Z,15.46
2017-10-17T23:37:32.241Z,15.39
2017-10-17T23:38:12.799Z,15.44
2017-10-17T23:38:53.361Z,15.44
2017-10-17T23:39:34.059Z,15.42
2017-10-17T23:40:14.617Z,15.35
2017-10-17T23:40:55.195Z,15.37
2017-10-17T23:41:35.781Z,15.46
2017-10-17T23:42:16.345Z,15.37
2017-10-17T23:42:56.900Z,15.39
2017-10-17T23:43:37.487Z,15.43
2017-10-17T23:44:18.075Z,15.42
2017-10-17T23:44:58.645Z,15.35
2017-10-17T23:45:39.204Z,15.43
2017-10-17T23:46:19.774Z,15.37
2017-10-17T23:47:00.351Z,15.35
2017-10-17T23:47:40.932Z,15.43
2017-10-17T23:48:21.506Z,15.36
2017-10-17T23:49:02.070Z,15.46
2017-10-17T23:49:42.651Z,15.4
2017-10-17T23:50:23.221Z,15.35
2017-10-17T23:51:03.796Z,15.39
2017-10-17T23:51:44.359Z,15.33
2017-10-17T23:52:24.938Z,15.31
2017-10-17T23:53:05.508Z,15.4
2017-10-17T23:53:46.069Z,15.35
2017-10-17T23:54:26.634Z,15.36
2017-10-17T23:55:07.193Z,15.39
2017-10-17T23:55:47.764Z,15.39
2017-10-17T23:56:28.325Z,15.36
2017-10-17T23:57:08.911Z,15.28
2017-10-17T23:57:49.478Z,15.39
2017-10-17T23:58:30.042Z,15.28
2017-10-17T23:59:10.612Z,15.36
2017-10-17T23:59:51.190Z,15.36
